sensor_id;sensor_type;location;lat;lon;timestamp;pressure;altitude;pressure_sealevel;temperature;humidity
38939;BME280;24211;49.980;19.776;2023-04-06T00:01:21;99743.84;;;2.75;94.74
38939;BME280;24211;49.980;19.776;2023-04-06T00:03:49;99744.50;;;2.77;93.67
38939;BME280;24211;49.980;19.776;2023-04-06T00:06:17;99731.63;;;2.74;94.33
38939;BME280;24211;49.980;19.776;2023-04-06T00:08:44;99738.56;;;2.75;94.66
38939;BME280;24211;49.980;19.776;2023-04-06T00:11:11;99745.81;;;2.73;95.25
38939;BME280;24211;49.980;19.776;2023-04-06T00:13:39;99738.88;;;2.72;95.00
38939;BME280;24211;49.980;19.776;2023-04-06T00:16:06;99743.00;;;2.66;96.55
38939;BME280;24211;49.980;19.776;2023-04-06T00:18:34;99746.94;;;2.54;98.31
38939;BME280;24211;49.980;19.776;2023-04-06T00:21:03;99751.38;;;2.53;98.00
38939;BME280;24211;49.980;19.776;2023-04-06T00:23:30;99736.91;;;2.57;97.83
38939;BME280;24211;49.980;19.776;2023-04-06T00:25:58;99738.88;;;2.55;98.25
38939;BME280;24211;49.980;19.776;2023-04-06T00:28:25;99733.91;;;2.60;97.61
38939;BME280;24211;49.980;19.776;2023-04-06T00:30:53;99737.56;;;2.68;95.83
38939;BME280;24211;49.980;19.776;2023-04-06T00:33:23;99727.03;;;2.68;95.33
38939;BME280;24211;49.980;19.776;2023-04-06T00:35:51;99730.47;;;2.68;95.39
38939;BME280;24211;49.980;19.776;2023-04-06T00:38:19;99728.16;;;2.65;96.60
38939;BME280;24211;49.980;19.776;2023-04-06T00:40:46;99723.38;;;2.69;96.12
38939;BME280;24211;49.980;19.776;2023-04-06T00:43:14;99724.72;;;2.73;96.43
38939;BME280;24211;49.980;19.776;2023-04-06T00:45:42;99723.72;;;2.74;95.99
38939;BME280;24211;49.980;19.776;2023-04-06T00:48:10;99728.97;;;2.74;96.24
38939;BME280;24211;49.980;19.776;2023-04-06T00:50:39;99722.72;;;2.75;96.37
38939;BME280;24211;49.980;19.776;2023-04-06T00:53:06;99722.72;;;2.75;96.62
38939;BME280;24211;49.980;19.776;2023-04-06T00:55:33;99717.44;;;2.75;96.58
38939;BME280;24211;49.980;19.776;2023-04-06T00:58:03;99724.38;;;2.76;96.88
38939;BME280;24211;49.980;19.776;2023-04-06T01:00:41;99726.34;;;2.74;97.45
38939;BME280;24211;49.980;19.776;2023-04-06T01:03:14;99721.25;;;2.72;97.02
38939;BME280;24211;49.980;19.776;2023-04-06T01:05:43;99726.66;;;2.71;98.62
38939;BME280;24211;49.980;19.776;2023-04-06T01:08:18;99719.75;;;2.70;98.30
38939;BME280;24211;49.980;19.776;2023-04-06T01:10:46;99716.94;;;2.71;99.24
38939;BME280;24211;49.980;19.776;2023-04-06T01:13:28;99716.13;;;2.71;99.01
38939;BME280;24211;49.980;19.776;2023-04-06T01:16:00;99714.47;;;2.70;98.71
38939;BME280;24211;49.980;19.776;2023-04-06T01:18:43;99709.19;;;2.70;98.82
38939;BME280;24211;49.980;19.776;2023-04-06T01:21:15;99714.47;;;2.70;100.00
38939;BME280;24211;49.980;19.776;2023-04-06T01:24:01;99712.00;;;2.68;100.00
38939;BME280;24211;49.980;19.776;2023-04-06T01:26:40;99711.19;;;2.68;100.00
38939;BME280;24211;49.980;19.776;2023-04-06T01:29:09;99708.22;;;2.62;100.00
38939;BME280;24211;49.980;19.776;2023-04-06T01:31:37;99713.50;;;2.62;100.00
38939;BME280;24211;49.980;19.776;2023-04-06T01:34:05;99712.81;;;2.60;100.00
38939;BME280;24211;49.980;19.776;2023-04-06T01:36:33;99711.19;;;2.59;100.00
38939;BME280;24211;49.980;19.776;2023-04-06T01:39:14;99716.94;;;2.55;100.00
38939;BME280;24211;49.980;19.776;2023-04-06T01:41:42;99710.84;;;2.54;100.00
38939;BME280;24211;49.980;19.776;2023-04-06T01:44:09;99707.53;;;2.52;100.00
38939;BME280;24211;49.980;19.776;2023-04-06T01:46:37;99712.31;;;2.49;100.00
38939;BME280;24211;49.980;19.776;2023-04-06T01:49:06;99715.97;;;2.48;100.00
38939;BME280;24211;49.980;19.776;2023-04-06T01:51:36;99711.13;;;2.43;100.00
38939;BME280;24211;49.980;19.776;2023-04-06T01:54:06;99698.31;;;2.40;100.00
38939;BME280;24211;49.980;19.776;2023-04-06T01:56:52;99702.56;;;2.41;100.00
38939;BME280;24211;49.980;19.776;2023-04-06T01:59:33;99706.53;;;2.37;100.00
38939;BME280;24211;49.980;19.776;2023-04-06T02:02:07;99700.59;;;2.35;100.00
38939;BME280;24211;49.980;19.776;2023-04-06T02:04:37;99702.59;;;2.33;100.00
38939;BME280;24211;49.980;19.776;2023-04-06T02:07:09;99701.25;;;2.29;100.00
38939;BME280;24211;49.980;19.776;2023-04-06T02:09:37;99703.03;;;2.29;100.00
38939;BME280;24211;49.980;19.776;2023-04-06T02:12:09;99697.94;;;2.27;100.00
38939;BME280;24211;49.980;19.776;2023-04-06T02:14:37;99701.56;;;2.26;100.00
38939;BME280;24211;49.980;19.776;2023-04-06T02:17:04;99695.81;;;2.23;100.00
38939;BME280;24211;49.980;19.776;2023-04-06T02:19:32;99698.94;;;2.18;100.00
38939;BME280;24211;49.980;19.776;2023-04-06T02:21:59;99695.63;;;2.16;100.00
38939;BME280;24211;49.980;19.776;2023-04-06T02:24:27;99691.16;;;2.17;100.00
38939;BME280;24211;49.980;19.776;2023-04-06T02:26:54;99689.69;;;2.14;100.00
38939;BME280;24211;49.980;19.776;2023-04-06T02:29:22;99692.66;;;2.11;100.00
38939;BME280;24211;49.980;19.776;2023-04-06T02:31:51;99692.97;;;2.08;100.00
38939;BME280;24211;49.980;19.776;2023-04-06T02:34:19;99694.94;;;2.06;100.00
38939;BME280;24211;49.980;19.776;2023-04-06T02:36:50;99696.09;;;2.04;100.00
38939;BME280;24211;49.980;19.776;2023-04-06T02:39:17;99692.28;;;1.98;100.00
38939;BME280;24211;49.980;19.776;2023-04-06T02:41:45;99689.47;;;1.99;100.00
38939;BME280;24211;49.980;19.776;2023-04-06T02:44:18;99686.34;;;1.96;100.00
38939;BME280;24211;49.980;19.776;2023-04-06T02:46:47;99693.59;;;1.94;100.00
38939;BME280;24211;49.980;19.776;2023-04-06T02:49:14;99694.88;;;1.90;100.00
38939;BME280;24211;49.980;19.776;2023-04-06T02:51:41;99693.25;;;1.89;100.00
38939;BME280;24211;49.980;19.776;2023-04-06T02:54:31;99705.75;;;1.87;100.00
38939;BME280;24211;49.980;19.776;2023-04-06T02:56:59;99706.09;;;1.84;100.00
38939;BME280;24211;49.980;19.776;2023-04-06T02:59:36;99704.72;;;1.80;100.00
38939;BME280;24211;49.980;19.776;2023-04-06T03:02:27;99704.72;;;1.80;100.00
38939;BME280;24211;49.980;19.776;2023-04-06T03:05:04;99710.34;;;1.77;100.00
38939;BME280;24211;49.980;19.776;2023-04-06T03:07:37;99711.50;;;1.74;100.00
38939;BME280;24211;49.980;19.776;2023-04-06T03:10:08;99716.91;;;1.73;100.00
38939;BME280;24211;49.980;19.776;2023-04-06T03:12:37;99712.94;;;1.69;100.00
38939;BME280;24211;49.980;19.776;2023-04-06T03:15:10;99712.94;;;1.69;100.00
38939;BME280;24211;49.980;19.776;2023-04-06T03:17:42;99710.63;;;1.66;100.00
38939;BME280;24211;49.980;19.776;2023-04-06T03:20:17;99716.84;;;1.65;100.00
38939;BME280;24211;49.980;19.776;2023-04-06T03:22:45;99720.78;;;1.61;100.00
38939;BME280;24211;49.980;19.776;2023-04-06T03:25:15;99719.13;;;1.60;100.00
38939;BME280;24211;49.980;19.776;2023-04-06T03:27:44;99712.22;;;1.59;100.00
38939;BME280;24211;49.980;19.776;2023-04-06T03:30:15;99710.91;;;1.55;100.00
38939;BME280;24211;49.980;19.776;2023-04-06T03:32:44;99723.06;;;1.56;100.00
38939;BME280;24211;49.980;19.776;2023-04-06T03:35:12;99726.03;;;1.53;100.00
38939;BME280;24211;49.980;19.776;2023-04-06T03:37:39;99718.47;;;1.50;100.00
38939;BME280;24211;49.980;19.776;2023-04-06T03:40:07;99718.75;;;1.47;100.00
38939;BME280;24211;49.980;19.776;2023-04-06T03:42:35;99727.13;;;1.42;100.00
38939;BME280;24211;49.980;19.776;2023-04-06T03:45:09;99724.63;;;1.41;100.00
38939;BME280;24211;49.980;19.776;2023-04-06T03:47:43;99718.88;;;1.37;100.00
38939;BME280;24211;49.980;19.776;2023-04-06T03:50:11;99720.69;;;1.37;100.00
38939;BME280;24211;49.980;19.776;2023-04-06T03:52:39;99717.22;;;1.36;100.00
38939;BME280;24211;49.980;19.776;2023-04-06T03:55:08;99716.72;;;1.33;100.00
38939;BME280;24211;49.980;19.776;2023-04-06T03:57:36;99720.31;;;1.31;100.00
38939;BME280;24211;49.980;19.776;2023-04-06T04:00:05;99722.78;;;1.33;100.00
38939;BME280;24211;49.980;19.776;2023-04-06T04:02:39;99727.56;;;1.29;100.00
38939;BME280;24211;49.980;19.776;2023-04-06T04:05:07;99724.56;;;1.24;100.00
38939;BME280;24211;49.980;19.776;2023-04-06T04:07:36;99724.56;;;1.24;100.00
38939;BME280;24211;49.980;19.776;2023-04-06T04:10:05;99724.38;;;1.18;100.00
38939;BME280;24211;49.980;19.776;2023-04-06T04:12:33;99719.91;;;1.18;100.00
38939;BME280;24211;49.980;19.776;2023-04-06T04:15:02;99727.78;;;1.18;100.00
38939;BME280;24211;49.980;19.776;2023-04-06T04:17:30;99717.28;;;1.18;100.00
38939;BME280;24211;49.980;19.776;2023-04-06T04:19:57;99725.16;;;1.18;100.00
38939;BME280;24211;49.980;19.776;2023-04-06T04:22:25;99717.13;;;1.20;100.00
38939;BME280;24211;49.980;19.776;2023-04-06T04:24:52;99725.16;;;1.18;100.00
38939;BME280;24211;49.980;19.776;2023-04-06T04:27:20;99727.13;;;1.16;100.00
38939;BME280;24211;49.980;19.776;2023-04-06T04:29:49;99724.13;;;1.11;100.00
38939;BME280;24211;49.980;19.776;2023-04-06T04:32:20;99720.53;;;1.12;100.00
38939;BME280;24211;49.980;19.776;2023-04-06T04:34:48;99716.09;;;1.13;100.00
38939;BME280;24211;49.980;19.776;2023-04-06T04:37:30;99725.50;;;1.15;100.00
38939;BME280;24211;49.980;19.776;2023-04-06T04:39:57;99711.97;;;1.10;100.00
38939;BME280;24211;49.980;19.776;2023-04-06T04:42:25;99727.78;;;1.10;100.00
38939;BME280;24211;49.980;19.776;2023-04-06T04:44:55;99728.44;;;1.12;100.00
38939;BME280;24211;49.980;19.776;2023-04-06T04:47:41;99710.31;;;1.09;100.00
38939;BME280;24211;49.980;19.776;2023-04-06T04:50:11;99717.25;;;1.10;100.00
38939;BME280;24211;49.980;19.776;2023-04-06T04:52:43;99711.28;;;1.08;100.00
38939;BME280;24211;49.980;19.776;2023-04-06T04:55:14;99720.84;;;1.09;100.00
38939;BME280;24211;49.980;19.776;2023-04-06T04:57:46;99718.03;;;1.11;100.00
38939;BME280;24211;49.980;19.776;2023-04-06T05:00:15;99720.53;;;1.12;100.00
38939;BME280;24211;49.980;19.776;2023-04-06T05:02:44;99718.56;;;1.14;100.00
38939;BME280;24211;49.980;19.776;2023-04-06T05:05:15;99714.63;;;1.18;100.00
38939;BME280;24211;49.980;19.776;2023-04-06T05:07:44;99717.94;;;1.20;100.00
38939;BME280;24211;49.980;19.776;2023-04-06T05:10:22;99715.16;;;1.22;100.00
38939;BME280;24211;49.980;19.776;2023-04-06T05:12:57;99715.34;;;1.28;100.00
38939;BME280;24211;49.980;19.776;2023-04-06T05:15:29;99716.72;;;1.33;100.00
38939;BME280;24211;49.980;19.776;2023-04-06T05:18:04;99714.88;;;1.33;100.00
38939;BME280;24211;49.980;19.776;2023-04-06T05:20:34;99710.44;;;1.33;100.00
38939;BME280;24211;49.980;19.776;2023-04-06T05:23:02;99710.16;;;1.37;100.00
38939;BME280;24211;49.980;19.776;2023-04-06T05:25:31;99718.34;;;1.33;100.00
38939;BME280;24211;49.980;19.776;2023-04-06T05:28:07;99714.75;;;1.35;100.00
38939;BME280;24211;49.980;19.776;2023-04-06T05:30:37;99716.06;;;1.39;100.00
38939;BME280;24211;49.980;19.776;2023-04-06T05:33:05;99716.13;;;1.47;100.00
38939;BME280;24211;49.980;19.776;2023-04-06T05:35:45;99705.94;;;1.52;100.00
38939;BME280;24211;49.980;19.776;2023-04-06T05:38:13;99720.31;;;1.57;100.00
38939;BME280;24211;49.980;19.776;2023-04-06T05:40:40;99707.63;;;1.61;100.00
38939;BME280;24211;49.980;19.776;2023-04-06T05:43:13;99705.66;;;1.63;100.00
38939;BME280;24211;49.980;19.776;2023-04-06T05:45:46;99701.03;;;1.65;100.00
38939;BME280;24211;49.980;19.776;2023-04-06T05:48:14;99705.88;;;1.77;100.00
38939;BME280;24211;49.980;19.776;2023-04-06T05:50:41;99697.84;;;1.79;100.00
38939;BME280;24211;49.980;19.776;2023-04-06T05:53:11;99699.16;;;1.83;100.00
38939;BME280;24211;49.980;19.776;2023-04-06T05:55:43;99705.75;;;1.87;100.00
38939;BME280;24211;49.980;19.776;2023-04-06T05:58:15;99701.16;;;1.89;100.00
38939;BME280;24211;49.980;19.776;2023-04-06T06:00:44;99702.31;;;1.94;100.00
38939;BME280;24211;49.980;19.776;2023-04-06T06:03:15;99707.78;;;2.01;100.00
38939;BME280;24211;49.980;19.776;2023-04-06T06:05:48;99702.16;;;2.04;100.00
38939;BME280;24211;49.980;19.776;2023-04-06T06:08:23;99702.16;;;2.04;100.00
38939;BME280;24211;49.980;19.776;2023-04-06T06:10:51;99701.53;;;2.10;100.00
38939;BME280;24211;49.980;19.776;2023-04-06T06:13:23;99698.91;;;2.10;100.00
38939;BME280;24211;49.980;19.776;2023-04-06T06:15:51;99702.84;;;2.14;100.00
38939;BME280;24211;49.980;19.776;2023-04-06T06:18:20;99700.91;;;2.16;100.00
38939;BME280;24211;49.980;19.776;2023-04-06T06:20:50;99706.84;;;2.18;100.00
38939;BME280;24211;49.980;19.776;2023-04-06T06:23:18;99705.34;;;2.16;100.00
38939;BME280;24211;49.980;19.776;2023-04-06T06:25:46;99701.06;;;2.23;100.00
38939;BME280;24211;49.980;19.776;2023-04-06T06:28:17;99710.63;;;2.24;100.00
38939;BME280;24211;49.980;19.776;2023-04-06T06:30:44;99704.88;;;2.28;100.00
38939;BME280;24211;49.980;19.776;2023-04-06T06:33:16;99701.75;;;2.33;100.00
38939;BME280;24211;49.980;19.776;2023-04-06T06:35:43;99710.31;;;2.35;100.00
38939;BME280;24211;49.980;19.776;2023-04-06T06:38:11;99697.63;;;2.30;100.00
38939;BME280;24211;49.980;19.776;2023-04-06T06:40:40;99701.75;;;2.33;100.00
38939;BME280;24211;49.980;19.776;2023-04-06T06:43:08;99698.28;;;2.32;100.00
38939;BME280;24211;49.980;19.776;2023-04-06T06:46:10;99694.00;;;2.39;100.00
38939;BME280;24211;49.980;19.776;2023-04-06T06:48:39;99695.81;;;2.39;100.00
38939;BME280;24211;49.980;19.776;2023-04-06T06:51:07;99698.31;;;2.40;100.00
38939;BME280;24211;49.980;19.776;2023-04-06T06:53:35;99700.59;;;2.35;100.00
38939;BME280;24211;49.980;19.776;2023-04-06T06:56:02;99701.25;;;2.29;100.00
38939;BME280;24211;49.980;19.776;2023-04-06T06:58:30;99695.50;;;2.26;100.00
38939;BME280;24211;49.980;19.776;2023-04-06T07:00:59;99695.97;;;2.29;100.00
38939;BME280;24211;49.980;19.776;2023-04-06T07:03:30;99699.09;;;2.25;100.00
38939;BME280;24211;49.980;19.776;2023-04-06T07:05:59;99700.41;;;2.29;100.00
38939;BME280;24211;49.980;19.776;2023-04-06T07:08:27;99701.91;;;2.31;100.00
38939;BME280;24211;49.980;19.776;2023-04-06T07:10:54;99705.53;;;2.30;100.00
38939;BME280;24211;49.980;19.776;2023-04-06T07:13:25;99700.59;;;2.35;100.00
38939;BME280;24211;49.980;19.776;2023-04-06T07:15:56;99698.97;;;2.42;100.00
38939;BME280;24211;49.980;19.776;2023-04-06T07:18:24;99695.16;;;2.37;100.00
38939;BME280;24211;49.980;19.776;2023-04-06T07:20:52;99692.03;;;2.33;100.00
38939;BME280;24211;49.980;19.776;2023-04-06T07:23:19;99692.69;;;2.35;100.00
38939;BME280;24211;49.980;19.776;2023-04-06T07:25:46;99702.25;;;2.36;100.00
38939;BME280;24211;49.980;19.776;2023-04-06T07:28:14;99697.97;;;2.43;100.00
38939;BME280;24211;49.980;19.776;2023-04-06T07:30:42;99707.72;;;2.43;100.00
38939;BME280;24211;49.980;19.776;2023-04-06T07:33:11;99706.19;;;2.48;100.00
38939;BME280;24211;49.980;19.776;2023-04-06T07:35:40;99700.78;;;2.50;100.00
38939;BME280;24211;49.980;19.776;2023-04-06T07:38:09;99696.69;;;2.55;100.00
38939;BME280;24211;49.980;19.776;2023-04-06T07:40:36;99705.91;;;2.59;100.00
38939;BME280;24211;49.980;19.776;2023-04-06T07:43:04;99707.53;;;2.60;100.00
38939;BME280;24211;49.980;19.776;2023-04-06T07:45:32;99696.50;;;2.65;100.00
38939;BME280;24211;49.980;19.776;2023-04-06T07:48:01;99698.66;;;2.70;100.00
38939;BME280;24211;49.980;19.776;2023-04-06T07:50:30;99704.25;;;2.75;100.00
38939;BME280;24211;49.980;19.776;2023-04-06T07:52:58;99701.28;;;2.78;100.00
38939;BME280;24211;49.980;19.776;2023-04-06T07:55:25;99707.06;;;2.81;100.00
38939;BME280;24211;49.980;19.776;2023-04-06T07:57:52;99701.44;;;2.84;100.00
38939;BME280;24211;49.980;19.776;2023-04-06T08:00:20;99697.66;;;2.87;100.00
38939;BME280;24211;49.980;19.776;2023-04-06T08:02:47;99697.66;;;2.87;100.00
38939;BME280;24211;49.980;19.776;2023-04-06T08:05:15;99693.03;;;2.89;100.00
38939;BME280;24211;49.980;19.776;2023-04-06T08:07:43;99693.03;;;2.89;100.00
38939;BME280;24211;49.980;19.776;2023-04-06T08:10:10;99695.66;;;2.89;100.00
38939;BME280;24211;49.980;19.776;2023-04-06T08:12:38;99695.50;;;2.90;100.00
38939;BME280;24211;49.980;19.776;2023-04-06T08:15:05;99690.53;;;2.95;100.00
38939;BME280;24211;49.980;19.776;2023-04-06T08:17:33;99686.72;;;2.98;100.00
38939;BME280;24211;49.980;19.776;2023-04-06T08:20:02;99685.56;;;3.00;94.35
38939;BME280;24211;49.980;19.776;2023-04-06T08:22:31;99684.75;;;3.08;97.69
38939;BME280;24211;49.980;19.776;2023-04-06T08:24:58;99679.44;;;3.16;97.77
38939;BME280;24211;49.980;19.776;2023-04-06T08:27:26;99685.06;;;3.21;97.83
38939;BME280;24211;49.980;19.776;2023-04-06T08:29:53;99681.72;;;3.27;98.18
38939;BME280;24211;49.980;19.776;2023-04-06T08:32:20;99672.81;;;3.28;94.98
38939;BME280;24211;49.980;19.776;2023-04-06T08:34:48;99676.75;;;3.32;92.08
38939;BME280;24211;49.980;19.776;2023-04-06T08:37:15;99675.44;;;3.36;90.36
38939;BME280;24211;49.980;19.776;2023-04-06T08:39:42;99672.28;;;3.49;89.69
38939;BME280;24211;49.980;19.776;2023-04-06T08:42:19;99666.13;;;3.56;89.13
38939;BME280;24211;49.980;19.776;2023-04-06T08:44:49;99663.94;;;3.68;89.05
38939;BME280;24211;49.980;19.776;2023-04-06T08:47:19;99667.34;;;3.76;87.68
38939;BME280;24211;49.980;19.776;2023-04-06T08:49:52;99662.31;;;3.89;86.08
38939;BME280;24211;49.980;19.776;2023-04-06T08:52:21;99661.25;;;4.07;85.87
38939;BME280;24211;49.980;19.776;2023-04-06T08:54:48;99648.56;;;4.25;82.83
38939;BME280;24211;49.980;19.776;2023-04-06T08:57:17;99650.00;;;4.50;80.89
38939;BME280;24211;49.980;19.776;2023-04-06T08:59:45;99643.56;;;4.67;77.81
38939;BME280;24211;49.980;19.776;2023-04-06T09:02:18;99650.81;;;4.73;76.80
38939;BME280;24211;49.980;19.776;2023-04-06T09:04:48;99642.06;;;4.87;74.58
38939;BME280;24211;49.980;19.776;2023-04-06T09:07:20;99640.00;;;4.97;71.47
38939;BME280;24211;49.980;19.776;2023-04-06T09:09:47;99641.25;;;5.01;70.38
38939;BME280;24211;49.980;19.776;2023-04-06T09:12:26;99641.19;;;5.09;71.56
38939;BME280;24211;49.980;19.776;2023-04-06T09:14:54;99632.59;;;5.07;69.83
38939;BME280;24211;49.980;19.776;2023-04-06T09:17:28;99635.19;;;5.15;70.90
38939;BME280;24211;49.980;19.776;2023-04-06T09:19:57;99630.25;;;5.12;69.12
38939;BME280;24211;49.980;19.776;2023-04-06T09:22:24;99628.56;;;5.26;68.78
38939;BME280;24211;49.980;19.776;2023-04-06T09:24:54;99629.69;;;5.32;68.65
38939;BME280;24211;49.980;19.776;2023-04-06T09:27:33;99630.97;;;5.36;68.53
38939;BME280;24211;49.980;19.776;2023-04-06T09:30:12;99626.31;;;5.23;67.93
38939;BME280;24211;49.980;19.776;2023-04-06T09:32:52;99617.47;;;5.31;68.88
38939;BME280;24211;49.980;19.776;2023-04-06T09:35:21;99620.25;;;5.44;67.90
38939;BME280;24211;49.980;19.776;2023-04-06T09:37:51;99620.75;;;5.33;67.92
38939;BME280;24211;49.980;19.776;2023-04-06T09:40:19;99615.97;;;5.43;68.13
38939;BME280;24211;49.980;19.776;2023-04-06T09:42:50;99615.97;;;5.43;67.62
38939;BME280;24211;49.980;19.776;2023-04-06T09:45:25;99613.22;;;5.51;66.94
38939;BME280;24211;49.980;19.776;2023-04-06T09:47:53;99613.69;;;5.54;65.63
38939;BME280;24211;49.980;19.776;2023-04-06T09:50:25;99619.41;;;5.58;64.87
38939;BME280;24211;49.980;19.776;2023-04-06T09:52:56;99610.19;;;5.54;64.64
38939;BME280;24211;49.980;19.776;2023-04-06T09:55:40;99609.56;;;5.52;64.17
38939;BME280;24211;49.980;19.776;2023-04-06T09:58:16;99608.81;;;5.58;65.18
38939;BME280;24211;49.980;19.776;2023-04-06T10:01:03;99609.75;;;5.65;64.58
38939;BME280;24211;49.980;19.776;2023-04-06T10:04:09;99610.69;;;5.78;62.71
38939;BME280;24211;49.980;19.776;2023-04-06T10:06:41;99605.19;;;5.80;62.24
38939;BME280;24211;49.980;19.776;2023-04-06T10:09:09;99604.19;;;5.81;62.17
38939;BME280;24211;49.980;19.776;2023-04-06T10:11:36;99602.53;;;5.80;62.06
38939;BME280;24211;49.980;19.776;2023-04-06T10:14:05;99598.06;;;5.80;61.80
38939;BME280;24211;49.980;19.776;2023-04-06T10:16:34;99599.81;;;5.88;61.50
38939;BME280;24211;49.980;19.776;2023-04-06T10:19:13;99593.78;;;5.94;60.67
38939;BME280;24211;49.980;19.776;2023-04-06T10:21:48;99598.19;;;5.87;61.29
38939;BME280;24211;49.980;19.776;2023-04-06T10:24:17;99586.44;;;5.96;61.91
38939;BME280;24211;49.980;19.776;2023-04-06T10:27:03;99582.03;;;6.03;61.42
38939;BME280;24211;49.980;19.776;2023-04-06T10:29:45;99584.63;;;6.18;60.67
38939;BME280;24211;49.980;19.776;2023-04-06T10:32:13;99580.13;;;6.18;60.53
38939;BME280;24211;49.980;19.776;2023-04-06T10:34:41;99564.47;;;6.23;60.04
38939;BME280;24211;49.980;19.776;2023-04-06T10:37:16;99575.72;;;6.25;61.54
38939;BME280;24211;49.980;19.776;2023-04-06T10:39:53;99577.47;;;6.18;60.50
38939;BME280;24211;49.980;19.776;2023-04-06T10:42:36;99572.28;;;6.10;61.56
38939;BME280;24211;49.980;19.776;2023-04-06T10:45:18;99576.09;;;6.22;61.34
38939;BME280;24211;49.980;19.776;2023-04-06T10:47:45;99569.06;;;6.15;59.43
38939;BME280;24211;49.980;19.776;2023-04-06T10:50:16;99569.31;;;6.20;61.51
38939;BME280;24211;49.980;19.776;2023-04-06T10:52:58;99569.91;;;6.15;61.78
38939;BME280;24211;49.980;19.776;2023-04-06T10:55:30;99572.28;;;6.10;62.83
38939;BME280;24211;49.980;19.776;2023-04-06T10:57:57;99562.50;;;6.11;62.12
38939;BME280;24211;49.980;19.776;2023-04-06T11:00:25;99559.28;;;6.15;62.19
38939;BME280;24211;49.980;19.776;2023-04-06T11:03:09;99564.97;;;6.12;62.32
38939;BME280;24211;49.980;19.776;2023-04-06T11:05:36;99570.25;;;6.12;62.81
38939;BME280;24211;49.980;19.776;2023-04-06T11:08:04;99574.13;;;6.10;63.33
38939;BME280;24211;49.980;19.776;2023-04-06T11:10:31;99565.22;;;5.96;63.83
38939;BME280;24211;49.980;19.776;2023-04-06T11:12:58;99570.50;;;5.75;65.48
38939;BME280;24211;49.980;19.776;2023-04-06T11:15:34;99561.06;;;5.87;66.51
38939;BME280;24211;49.980;19.776;2023-04-06T11:18:05;99555.50;;;6.03;66.14
38939;BME280;24211;49.980;19.776;2023-04-06T11:20:33;99549.03;;;6.12;66.41
38939;BME280;24211;49.980;19.776;2023-04-06T11:23:00;99550.31;;;6.16;66.79
38939;BME280;24211;49.980;19.776;2023-04-06T11:25:29;99555.00;;;6.14;67.24
38939;BME280;24211;49.980;19.776;2023-04-06T11:27:59;99561.31;;;6.13;67.29
38939;BME280;24211;49.980;19.776;2023-04-06T11:30:27;99562.47;;;6.04;67.58
38939;BME280;24211;49.980;19.776;2023-04-06T11:33:01;99559.47;;;5.92;69.39
38939;BME280;24211;49.980;19.776;2023-04-06T11:35:31;99558.50;;;5.79;73.49
38939;BME280;24211;49.980;19.776;2023-04-06T11:38:03;99561.69;;;5.89;75.84
38939;BME280;24211;49.980;19.776;2023-04-06T11:40:31;99563.06;;;5.85;79.65
38939;BME280;24211;49.980;19.776;2023-04-06T11:43:00;99557.75;;;5.85;82.88
38939;BME280;24211;49.980;19.776;2023-04-06T11:45:41;99558.56;;;5.85;86.56
38939;BME280;24211;49.980;19.776;2023-04-06T11:48:19;99552.81;;;5.82;91.37
38939;BME280;24211;49.980;19.776;2023-04-06T11:50:58;99556.09;;;5.84;92.64
38939;BME280;24211;49.980;19.776;2023-04-06T11:53:30;99547.41;;;5.75;100.00
38939;BME280;24211;49.980;19.776;2023-04-06T11:55:58;99550.63;;;5.71;100.00
38939;BME280;24211;49.980;19.776;2023-04-06T11:58:29;99557.59;;;5.72;100.00
38939;BME280;24211;49.980;19.776;2023-04-06T12:01:04;99556.97;;;5.70;100.00
38939;BME280;24211;49.980;19.776;2023-04-06T12:03:31;99562.00;;;5.65;100.00
38939;BME280;24211;49.980;19.776;2023-04-06T12:05:59;99566.03;;;5.61;100.00
38939;BME280;24211;49.980;19.776;2023-04-06T12:08:27;99559.09;;;5.60;100.00
38939;BME280;24211;49.980;19.776;2023-04-06T12:10:54;99553.78;;;5.60;100.00
38939;BME280;24211;49.980;19.776;2023-04-06T12:13:22;99553.28;;;5.50;100.00
38939;BME280;24211;49.980;19.776;2023-04-06T12:15:49;99543.75;;;5.41;100.00
38939;BME280;24211;49.980;19.776;2023-04-06T12:18:17;99548.09;;;5.27;100.00
38939;BME280;24211;49.980;19.776;2023-04-06T12:20:44;99542.81;;;5.12;100.00
38939;BME280;24211;49.980;19.776;2023-04-06T12:23:11;99546.03;;;5.08;100.00
38939;BME280;24211;49.980;19.776;2023-04-06T12:25:40;99545.47;;;5.12;100.00
38939;BME280;24211;49.980;19.776;2023-04-06T12:28:08;99546.75;;;4.87;100.00
38939;BME280;24211;49.980;19.776;2023-04-06T12:30:35;99557.16;;;4.74;100.00
38939;BME280;24211;49.980;19.776;2023-04-06T12:33:03;99552.13;;;4.79;100.00
38939;BME280;24211;49.980;19.776;2023-04-06T12:35:33;99557.25;;;4.81;100.00
38939;BME280;24211;49.980;19.776;2023-04-06T12:38:01;99555.31;;;4.60;100.00
38939;BME280;24211;49.980;19.776;2023-04-06T12:40:29;99555.03;;;4.55;100.00
38939;BME280;24211;49.980;19.776;2023-04-06T12:42:56;99554.59;;;4.66;100.00
38939;BME280;24211;49.980;19.776;2023-04-06T12:45:24;99551.69;;;4.76;100.00
38939;BME280;24211;49.980;19.776;2023-04-06T12:47:51;99547.75;;;4.72;100.00
38939;BME280;24211;49.980;19.776;2023-04-06T12:50:19;99547.38;;;4.75;100.00
38939;BME280;24211;49.980;19.776;2023-04-06T12:52:47;99550.22;;;4.73;100.00
38939;BME280;24211;49.980;19.776;2023-04-06T12:55:15;99546.94;;;4.71;100.00
38939;BME280;24211;49.980;19.776;2023-04-06T12:57:43;99537.41;;;4.47;100.00
38939;BME280;24211;49.980;19.776;2023-04-06T13:00:11;99541.59;;;4.42;100.00
38939;BME280;24211;49.980;19.776;2023-04-06T13:02:38;99534.94;;;4.46;100.00
38939;BME280;24211;49.980;19.776;2023-04-06T13:05:06;99537.94;;;4.43;100.00
38939;BME280;24211;49.980;19.776;2023-04-06T13:07:34;99529.66;;;4.46;100.00
38939;BME280;24211;49.980;19.776;2023-04-06T13:10:01;99531.94;;;4.49;100.00